Time;durP1;ratioP1;P1;durP2;ratioP2;P2;SDS_P1;SDS_P2;PMS_P1;PMS_P2;Temp;Humidity;BMP_temperature;BMP_pressure;BME280_temperature;BME280_humidity;BME280_pressure;Samples;Min_cycle;Max_cycle;Signal;HPM_P1;HPM_P2
2023/08/05 00:00:21;;;;;;;2.00;1.60;;;;;;;;;;4955841;28;20130;-35
2023/08/05 00:02:48;;;;;;;2.17;1.63;;;21.10;86.10;;;;;;4951172;28;20135;-36
2023/08/05 00:05:14;;;;;;;2.05;1.60;;;20.80;86.20;;;;;;4951483;28;20055;-37
2023/08/05 00:07:42;;;;;;;1.95;1.45;;;20.80;68.60;;;;;;4951555;28;20138;-32
2023/08/05 00:10:10;;;;;;;1.50;1.40;;;20.40;86.10;;;;;;4951318;28;20138;-37
2023/08/05 00:12:36;;;;;;;2.22;1.70;;;20.20;85.90;;;;;;4951076;28;20134;-38
2023/08/05 00:15:03;;;;;;;1.92;1.55;;;20.70;85.90;;;;;;4951418;28;20138;-29
2023/08/05 00:17:30;;;;;;;2.90;1.77;;;21.20;86.20;;;;;;4952405;28;20140;-30
2023/08/05 00:19:57;;;;;;;2.30;1.60;;;20.50;86.20;;;;;;4951393;28;20134;-30
2023/08/05 00:22:24;;;;;;;2.03;1.60;;;;;;;;;;4950899;28;20480;-31
2023/08/05 00:24:52;;;;;;;2.47;1.60;;;20.80;68.60;;;;;;4951276;28;20047;-31
2023/08/05 00:27:19;;;;;;;2.42;1.70;;;20.30;72.90;;;;;;4951099;28;20131;-30
2023/08/05 00:29:46;;;;;;;1.52;1.42;;;20.50;83.70;;;;;;4951027;28;20236;-29
2023/08/05 00:32:13;;;;;;;2.05;1.63;;;21.20;86.20;;;;;;4950894;28;20507;-30
2023/08/05 00:34:40;;;;;;;3.20;1.83;;;;;;;;;;4952049;28;20147;-34
2023/08/05 00:37:07;;;;;;;2.28;1.50;;;20.60;85.80;;;;;;4960920;28;20129;-30
2023/08/05 00:39:34;;;;;;;2.35;1.70;;;20.60;86.20;;;;;;4970227;28;20078;-30
2023/08/05 00:42:02;;;;;;;1.88;1.50;;;20.70;68.50;;;;;;4970190;28;20082;-33
2023/08/05 00:44:29;;;;;;;2.75;1.80;;;;;;;;;;4951025;28;20137;-33
2023/08/05 00:46:56;;;;;;;2.95;1.90;;;20.90;86.00;;;;;;4951058;28;20242;-29
2023/08/05 00:49:23;;;;;;;2.40;1.60;;;;;;;;;;4953761;28;20097;-34
2023/08/05 00:51:49;;;;;;;2.22;1.60;;;20.60;81.30;;;;;;4950849;28;20126;-30
2023/08/05 00:54:16;;;;;;;1.92;1.60;;;20.10;85.60;;;;;;4950799;28;20142;-29
2023/08/05 00:56:43;;;;;;;1.90;1.70;;;;;;;;;;4950748;28;20133;-33
2023/08/05 00:59:11;;;;;;;2.22;1.50;;;21.30;86.50;;;;;;4959182;28;20129;-30
2023/08/05 01:01:38;;;;;;;2.15;1.52;;;21.10;86.50;;;;;;4969856;28;20133;-30
2023/08/05 01:04:05;;;;;;;2.80;1.60;;;20.50;86.10;;;;;;4969917;28;20306;-28
2023/08/05 01:06:32;;;;;;;2.47;1.80;;;21.10;85.80;;;;;;4961566;28;20055;-30
2023/08/05 01:08:58;;;;;;;2.35;1.70;;;21.60;86.40;;;;;;4967464;28;20129;-31
2023/08/05 01:11:25;;;;;;;2.28;1.65;;;;;;;;;;4973427;28;20138;-33
2023/08/05 01:13:52;;;;;;;1.90;1.60;;;19.70;85.70;;;;;;4972724;28;20053;-30
2023/08/05 01:16:20;;;;;;;2.20;1.55;;;20.70;68.40;;;;;;4973234;28;20126;-30
2023/08/05 01:18:47;;;;;;;2.97;1.70;;;20.30;74.80;;;;;;4973219;28;20142;-29
2023/08/05 01:21:17;;;;;;;1.92;1.60;;;20.70;68.40;;;;;;4973171;28;20125;-32
2023/08/05 01:23:49;;;;;;;2.40;1.80;;;20.70;86.00;;;;;;4961533;28;20556;-30
2023/08/05 01:26:17;;;;;;;2.92;1.67;;;20.50;74.90;;;;;;4971801;28;20133;-31
2023/08/05 01:28:45;;;;;;;2.13;1.50;;;20.70;72.30;;;;;;4973063;28;20138;-31
2023/08/05 01:31:12;;;;;;;3.08;1.70;;;;;;;;;;4973154;28;20054;-32
2023/08/05 01:33:39;;;;;;;1.88;1.50;;;20.70;85.80;;;;;;4972524;28;20126;-30
2023/08/05 01:36:06;;;;;;;2.40;1.50;;;20.80;86.20;;;;;;4972392;28;20708;-29
2023/08/05 01:38:32;;;;;;;1.70;1.50;;;20.70;70.80;;;;;;4971039;28;20135;-32
2023/08/05 01:40:59;;;;;;;2.13;1.63;;;20.60;81.40;;;;;;4963029;28;20559;-31
2023/08/05 01:43:27;;;;;;;2.30;1.60;;;21.60;86.70;;;;;;4953633;28;20126;-30
2023/08/05 01:45:54;;;;;;;2.40;1.60;;;21.40;86.60;;;;;;4953422;28;20134;-30
2023/08/05 01:48:21;;;;;;;2.90;1.90;;;;;;;;;;4953560;28;20078;-34
2023/08/05 01:50:47;;;;;;;1.88;1.60;;;20.50;86.20;;;;;;4953357;28;20138;-29
2023/08/05 01:53:14;;;;;;;1.80;1.60;;;20.20;86.10;;;;;;4953579;28;20607;-32
2023/08/05 01:55:41;;;;;;;2.22;1.90;;;20.70;77.90;;;;;;4961067;28;20130;-30
2023/08/05 01:58:07;;;;;;;2.80;1.50;;;21.60;80.50;;;;;;4972473;28;20146;-30
2023/08/05 02:00:36;;;;;;;4.32;1.80;;;20.10;74.50;;;;;;4956979;28;20057;-31
2023/08/05 02:03:03;;;;;;;2.10;1.60;;;21.00;73.90;;;;;;4960942;28;20118;-33
2023/08/05 02:05:30;;;;;;;2.80;1.80;;;21.20;86.40;;;;;;4962408;28;20093;-32
2023/08/05 02:07:56;;;;;;;1.95;1.73;;;21.20;86.10;;;;;;4963286;28;20639;-31
2023/08/05 02:10:23;;;;;;;3.80;1.70;;;21.00;75.40;;;;;;4963478;28;20144;-32
2023/08/05 02:12:50;;;;;;;2.22;1.50;;;20.60;85.70;;;;;;4962663;28;20071;-31
2023/08/05 02:15:17;;;;;;;2.17;1.65;;;21.10;86.40;;;;;;4963959;28;20126;-31
2023/08/05 02:17:45;;;;;;;2.58;1.98;;;19.70;74.10;;;;;;4960679;28;20126;-32
2023/08/05 02:20:12;;;;;;;2.28;1.75;;;21.60;74.40;;;;;;4956935;28;20055;-34
2023/08/05 02:22:38;;;;;;;2.35;1.80;;;21.00;86.40;;;;;;4960221;28;20074;-31
2023/08/05 02:25:06;;;;;;;2.50;1.65;;;20.80;86.10;;;;;;4961190;28;20592;-31
2023/08/05 02:27:33;;;;;;;1.92;1.73;;;20.20;85.40;;;;;;4963039;28;20580;-31
2023/08/05 02:30:00;;;;;;;2.17;1.60;;;;;;;;;;4963802;28;20078;-35
2023/08/05 02:32:26;;;;;;;2.45;1.58;;;20.40;85.60;;;;;;4961002;28;20130;-31
2023/08/05 02:34:55;;;;;;;3.55;1.70;;;20.60;68.30;;;;;;4962191;28;20065;-35
2023/08/05 02:37:22;;;;;;;2.22;1.80;;;;;;;;;;4963581;28;20158;-35
2023/08/05 02:39:49;;;;;;;3.50;1.73;;;20.30;85.60;;;;;;4968985;28;20081;-32
2023/08/05 02:42:15;;;;;;;2.40;1.85;;;20.30;86.00;;;;;;4961973;28;20576;-31
2023/08/05 02:44:42;;;;;;;2.83;1.70;;;;;;;;;;4960201;28;20122;-33
2023/08/05 02:47:09;;;;;;;2.97;1.45;;;19.60;85.30;;;;;;4952543;28;20137;-30
2023/08/05 02:49:36;;;;;;;1.80;1.50;;;20.40;85.60;;;;;;4962202;28;20613;-30
2023/08/05 02:52:04;;;;;;;2.22;1.50;;;19.70;70.10;;;;;;4963667;28;20130;-32
2023/08/05 02:54:31;;;;;;;2.67;1.70;;;20.60;72.50;;;;;;4966108;28;20059;-30
2023/08/05 02:56:58;;;;;;;2.05;1.65;;;21.10;86.10;;;;;;4961097;28;20134;-30
2023/08/05 02:59:25;;;;;;;3.47;1.70;;;;;;;;;;4956564;28;20150;-32
2023/08/05 03:01:52;;;;;;;3.05;1.80;;;20.50;85.70;;;;;;4952457;28;20082;-30
2023/08/05 03:04:19;;;;;;;2.13;1.77;;;;;;;;;;4952242;28;20146;-35
2023/08/05 03:06:45;;;;;;;1.85;1.52;;;20.70;85.80;;;;;;4952605;28;20138;-30
2023/08/05 03:09:13;;;;;;;2.60;1.60;;;20.50;85.80;;;;;;4953525;28;20122;-30
2023/08/05 03:11:40;;;;;;;2.17;1.77;;;21.40;86.30;;;;;;4952292;28;20552;-31
2023/08/05 03:14:07;;;;;;;4.40;1.80;;;;;;;;;;4952004;28;20104;-33
2023/08/05 03:16:34;;;;;;;2.63;1.75;;;20.10;85.80;;;;;;4952100;28;20130;-30
2023/08/05 03:19:01;;;;;;;2.22;1.60;;;20.20;85.60;;;;;;4952437;28;20499;-30
2023/08/05 03:21:27;;;;;;;3.28;1.58;;;21.60;80.10;;;;;;4952365;28;20086;-31
2023/08/05 03:23:54;;;;;;;2.20;1.60;;;20.80;85.90;;;;;;4951891;28;20484;-30
2023/08/05 03:26:22;;;;;;;2.60;1.65;;;21.20;86.50;;;;;;4953315;28;20082;-30
2023/08/05 03:28:49;;;;;;;2.92;1.85;;;;;;;;;;4951182;28;20139;-30
2023/08/05 03:31:16;;;;;;;2.50;1.70;;;20.60;86.10;;;;;;4954583;28;20134;-30
2023/08/05 03:33:43;;;;;;;2.10;1.80;;;20.80;86.20;;;;;;4962866;28;20475;-30
2023/08/05 03:36:10;;;;;;;2.88;1.63;;;;;;;;;;4970946;28;20142;-31
2023/08/05 03:38:36;;;;;;;2.95;2.00;;;21.60;86.30;;;;;;4971163;28;20134;-30
2023/08/05 03:41:04;;;;;;;2.47;1.98;;;20.40;86.10;;;;;;4970498;28;20150;-30
2023/08/05 03:43:32;;;;;;;1.98;1.60;;;21.00;86.30;;;;;;4963917;28;20054;-30
2023/08/05 03:45:59;;;;;;;2.83;2.15;;;19.50;85.50;;;;;;4971288;28;20059;-30
2023/08/05 03:48:26;;;;;;;2.22;1.90;;;21.10;85.90;;;;;;4971126;28;20426;-30
2023/08/05 03:50:53;;;;;;;3.67;1.90;;;;;;;;;;4970936;28;20100;-31
2023/08/05 03:53:20;;;;;;;3.90;2.03;;;20.20;86.00;;;;;;4970793;28;20567;-31
2023/08/05 03:55:47;;;;;;;3.42;2.38;;;19.50;85.20;;;;;;4970960;28;20058;-30
2023/08/05 03:58:14;;;;;;;3.33;2.00;;;20.50;85.80;;;;;;4962566;28;20055;-30
2023/08/05 04:00:43;;;;;;;2.47;1.83;;;20.10;80.60;;;;;;4971132;28;20130;-31
2023/08/05 04:03:10;;;;;;;2.33;1.67;;;20.60;85.90;;;;;;4970600;28;20092;-30
2023/08/05 04:05:37;;;;;;;2.53;2.00;;;;;;;;;;4970910;28;20112;-33
2023/08/05 04:08:04;;;;;;;3.20;1.88;;;19.70;85.70;;;;;;4970839;28;20129;-30
2023/08/05 04:10:33;;;;;;;2.40;1.92;;;;;;;;;;4970871;28;20137;-35
2023/08/05 04:13:01;;;;;;;2.50;1.80;;;20.20;86.10;;;;;;4970406;28;20054;-30
2023/08/05 04:15:30;;;;;;;4.28;1.90;;;21.20;86.40;;;;;;4970098;28;20074;-30
2023/08/05 04:17:59;;;;;;;2.88;2.00;;;20.60;86.30;;;;;;4970725;28;20051;-30
2023/08/05 04:20:27;;;;;;;5.07;1.95;;;20.60;85.90;;;;;;4970585;28;20054;-30
2023/08/05 04:22:54;;;;;;;2.15;1.80;;;20.90;86.10;;;;;;4970217;28;20061;-30
2023/08/05 04:25:20;;;;;;;3.15;1.90;;;19.90;86.00;;;;;;4970720;28;20057;-30
2023/08/05 04:27:47;;;;;;;2.97;1.92;;;;;;;;;;4965290;28;20139;-34
2023/08/05 04:30:14;;;;;;;3.13;2.00;;;20.30;72.30;;;;;;4952084;28;20548;-32
2023/08/05 04:32:41;;;;;;;2.90;1.83;;;20.80;86.10;;;;;;4967572;28;20659;-30
2023/08/05 04:35:09;;;;;;;2.28;1.77;;;20.60;74.90;;;;;;4970129;28;20126;-33
2023/08/05 04:37:36;;;;;;;2.55;1.73;;;20.70;86.30;;;;;;4969919;28;20143;-31
2023/08/05 04:40:03;;;;;;;2.53;1.90;;;20.30;85.80;;;;;;4970142;28;20134;-30
2023/08/05 04:42:30;;;;;;;2.40;1.80;;;;;;;;;;4969912;28;20522;-31
2023/08/05 04:44:57;;;;;;;2.00;1.70;;;20.70;86.00;;;;;;4970347;28;20551;-30
2023/08/05 04:47:24;;;;;;;2.58;1.90;;;;;;;;;;4965770;28;20074;-34
2023/08/05 04:49:51;;;;;;;2.92;2.05;;;;;;;;;;4970196;28;20082;-31
2023/08/05 04:52:19;;;;;;;2.80;1.80;;;20.30;68.00;;;;;;4969833;28;20134;-35
2023/08/05 04:54:46;;;;;;;3.75;2.10;;;;;;;;;;4970358;28;20150;-35
2023/08/05 04:57:13;;;;;;;2.55;1.80;;;19.80;85.50;;;;;;4970196;28;20051;-29
2023/08/05 04:59:40;;;;;;;2.60;1.73;;;;;;;;;;4957537;28;20151;-35
2023/08/05 05:02:07;;;;;;;3.08;1.90;;;20.00;85.50;;;;;;4950848;28;20058;-30
2023/08/05 05:04:34;;;;;;;2.42;1.92;;;20.00;85.60;;;;;;4961840;28;20130;-30
2023/08/05 05:07:00;;;;;;;2.65;1.95;;;20.40;71.70;;;;;;4970358;28;20082;-31
2023/08/05 05:09:29;;;;;;;2.25;1.70;;;20.30;85.90;;;;;;4970066;28;20134;-30
2023/08/05 05:11:56;;;;;;;2.88;1.90;;;21.00;81.50;;;;;;4969848;28;20055;-30
2023/08/05 05:14:23;;;;;;;2.22;1.60;;;20.60;85.90;;;;;;4969745;28;20061;-29
2023/08/05 05:16:50;;;;;;;2.35;1.75;;;21.30;86.60;;;;;;4970008;28;20137;-31
2023/08/05 05:19:17;;;;;;;2.40;1.90;;;;;;;;;;4968129;28;20131;-34
2023/08/05 05:21:44;;;;;;;2.72;1.70;;;20.00;85.50;;;;;;4970178;28;20125;-30
2023/08/05 05:24:10;;;;;;;2.40;1.70;;;20.80;86.00;;;;;;4963028;28;20134;-29
2023/08/05 05:26:38;;;;;;;3.03;1.98;;;19.30;68.70;;;;;;4950692;28;20130;-33
2023/08/05 05:29:05;;;;;;;2.53;1.83;;;;;;;;;;4950572;28;20130;-32
2023/08/05 05:31:32;;;;;;;2.90;2.20;;;19.30;85.30;;;;;;4950404;28;20483;-29
2023/08/05 05:33:59;;;;;;;3.05;1.75;;;;;;;;;;4950097;28;20055;-34
2023/08/05 05:36:26;;;;;;;3.60;1.95;;;20.00;85.50;;;;;;4956039;28;20075;-30
2023/08/05 05:38:53;;;;;;;2.55;1.90;;;20.40;85.70;;;;;;4969473;28;20137;-29
2023/08/05 05:41:20;;;;;;;2.00;1.80;;;;;;;;;;4969784;28;20105;-32
2023/08/05 05:43:48;;;;;;;3.03;1.90;;;20.90;86.30;;;;;;4969455;28;20078;-30
2023/08/05 05:46:17;;;;;;;2.88;2.03;;;20.20;85.70;;;;;;4969512;28;20134;-30
2023/08/05 05:48:44;;;;;;;2.17;1.85;;;;;;;;;;4969460;28;20082;-33
2023/08/05 05:51:11;;;;;;;2.00;1.75;;;20.00;85.60;;;;;;4967700;28;20500;-29
2023/08/05 05:53:37;;;;;;;2.85;1.80;;;19.10;85.40;;;;;;4971294;28;20129;-30
2023/08/05 05:56:05;;;;;;;2.00;1.50;;;20.30;76.80;;;;;;4972701;28;20564;-32
2023/08/05 05:58:34;;;;;;;2.22;1.67;;;20.70;85.90;;;;;;4969151;28;20130;-30
2023/08/05 06:01:02;;;;;;;1.90;1.70;;;20.90;85.90;;;;;;4953362;28;20047;-30
2023/08/05 06:03:31;;;;;;;6.10;1.90;;;20.30;85.70;;;;;;4953039;28;20055;-29
2023/08/05 06:05:59;;;;;;;2.78;1.77;;;20.10;85.70;;;;;;4968006;28;20566;-29
2023/08/05 06:08:25;;;;;;;3.10;2.03;;;19.70;74.90;;;;;;4972768;28;20133;-32
2023/08/05 06:10:53;;;;;;;3.67;1.60;;;;;;;;;;4968128;28;20475;-34
2023/08/05 06:13:20;;;;;;;2.10;1.73;;;20.90;86.30;;;;;;4963260;28;20051;-30
2023/08/05 06:15:47;;;;;;;2.20;1.70;;;;;;;;;;4968746;28;20435;-35
2023/08/05 06:18:15;;;;;;;2.30;1.75;;;20.60;85.80;;;;;;4963929;28;20043;-30
2023/08/05 06:20:42;;;;;;;1.90;1.60;;;20.50;78.10;;;;;;4963331;28;20150;-29
2023/08/05 06:23:08;;;;;;;2.08;1.67;;;20.40;86.00;;;;;;4961200;28;20138;-30
2023/08/05 06:25:35;;;;;;;2.30;1.70;;;20.70;82.10;;;;;;4962388;28;20129;-29
2023/08/05 06:28:02;;;;;;;3.65;1.90;;;20.30;85.90;;;;;;4963369;28;20074;-30
2023/08/05 06:30:28;;;;;;;4.72;2.30;;;20.20;85.90;;;;;;4969340;28;20599;-30
2023/08/05 06:32:55;;;;;;;4.57;1.77;;;21.20;79.30;;;;;;4972045;28;20134;-30
2023/08/05 06:35:23;;;;;;;2.10;1.60;;;20.30;85.50;;;;;;4972075;28;20523;-29
2023/08/05 06:37:51;;;;;;;4.90;1.80;;;20.50;85.70;;;;;;4963369;28;20579;-30
2023/08/05 06:40:17;;;;;;;2.40;1.70;;;20.50;70.80;;;;;;4952411;28;20105;-32
2023/08/05 06:42:44;;;;;;;2.53;1.77;;;20.70;86.00;;;;;;4954542;28;20154;-29
2023/08/05 06:45:11;;;;;;;2.17;1.70;;;;;;;;;;4972258;28;20130;-29
2023/08/05 06:47:38;;;;;;;2.25;1.77;;;20.20;85.50;;;;;;4971667;28;20587;-30
2023/08/05 06:50:07;;;;;;;3.88;2.03;;;20.10;85.40;;;;;;4972147;28;20129;-30
2023/08/05 06:52:35;;;;;;;2.75;1.80;;;20.30;68.00;;;;;;4968732;28;20051;-34
2023/08/05 06:55:03;;;;;;;2.45;1.88;;;;;;;;;;4963118;28;20044;-34
2023/08/05 06:57:30;;;;;;;3.40;1.88;;;;;;;;;;4972018;28;20058;-32
2023/08/05 06:59:57;;;;;;;2.40;1.88;;;20.80;86.00;;;;;;4956772;28;20126;-29
2023/08/05 07:02:24;;;;;;;3.63;2.25;;;;;;;;;;4952454;28;20134;-32
2023/08/05 07:04:51;;;;;;;4.53;2.00;;;19.30;79.70;;;;;;4952274;28;20066;-30
2023/08/05 07:07:18;;;;;;;2.45;1.73;;;;;;;;;;4952561;28;20074;-33
2023/08/05 07:09:46;;;;;;;2.97;1.80;;;20.80;86.30;;;;;;4953258;28;20130;-30
2023/08/05 07:12:13;;;;;;;2.60;1.80;;;21.40;86.70;;;;;;4952187;28;20158;-29
2023/08/05 07:14:44;;;;;;;2.60;1.88;;;20.30;85.80;;;;;;4952462;28;20229;-31
2023/08/05 07:17:11;;;;;;;4.78;1.80;;;20.70;83.50;;;;;;4962825;28;20065;-30
2023/08/05 07:19:37;;;;;;;3.08;1.65;;;20.10;86.10;;;;;;4971500;28;20552;-30
2023/08/05 07:22:04;;;;;;;3.80;1.70;;;20.70;86.30;;;;;;4971233;28;20134;-30
2023/08/05 07:24:31;;;;;;;2.47;1.88;;;20.30;73.20;;;;;;4971229;28;20126;-30
2023/08/05 07:26:59;;;;;;;2.58;1.80;;;21.20;86.60;;;;;;4965581;28;20126;-30
2023/08/05 07:29:26;;;;;;;2.35;1.88;;;20.10;85.70;;;;;;4957050;28;20130;-30
2023/08/05 07:31:53;;;;;;;2.88;1.83;;;;;;;;;;4962007;28;20146;-33
2023/08/05 07:34:20;;;;;;;3.15;1.80;;;20.90;86.00;;;;;;4963951;28;20051;-30
2023/08/05 07:36:46;;;;;;;3.50;1.75;;;20.40;85.80;;;;;;4970507;28;20138;-32
2023/08/05 07:39:14;;;;;;;2.63;1.88;;;;;;;;;;4971213;28;20050;-31
2023/08/05 07:41:40;;;;;;;2.10;1.60;;;20.90;86.50;;;;;;4971256;28;20138;-29
2023/08/05 07:44:09;;;;;;;4.10;1.45;;;20.50;68.40;;;;;;4967107;28;20092;-34
2023/08/05 07:46:37;;;;;;;2.42;1.58;;;20.30;85.70;;;;;;4966383;28;20055;-31
2023/08/05 07:49:07;;;;;;;2.40;1.90;;;;;;;;;;4971121;28;20054;-31
2023/08/05 07:51:33;;;;;;;4.10;1.88;;;20.60;70.60;;;;;;4971224;28;20082;-32
2023/08/05 07:54:00;;;;;;;2.20;1.80;;;21.10;81.50;;;;;;4970677;28;20100;-31
2023/08/05 07:56:27;;;;;;;2.65;1.98;;;21.00;86.50;;;;;;4966762;28;20122;-30
2023/08/05 07:58:54;;;;;;;2.40;1.70;;;;;;;;;;4959013;28;20134;-31
2023/08/05 08:01:22;;;;;;;3.15;1.90;;;20.30;86.00;;;;;;4953155;28;20134;-30
2023/08/05 08:03:51;;;;;;;3.25;1.80;;;20.50;86.10;;;;;;4951320;28;20511;-30
2023/08/05 08:06:19;;;;;;;4.20;2.00;;;20.60;68.50;;;;;;4951686;28;20134;-34
2023/08/05 08:08:45;;;;;;;4.82;1.80;;;20.50;85.80;;;;;;4951573;28;20051;-31
2023/08/05 08:11:12;;;;;;;3.65;1.85;;;;;;;;;;4951461;28;20478;-31
2023/08/05 08:13:39;;;;;;;3.25;1.83;;;20.60;70.80;;;;;;4956897;28;20097;-31
2023/08/05 08:16:06;;;;;;;3.20;1.83;;;;;;;;;;4959470;28;20043;-34
2023/08/05 08:18:34;;;;;;;3.25;1.88;;;20.60;86.10;;;;;;4951324;29;20134;-30
2023/08/05 08:21:01;;;;;;;3.47;1.90;;;20.40;85.50;;;;;;4951307;29;20055;-31
2023/08/05 08:23:28;;;;;;;6.82;2.00;;;;;;;;;;4951292;29;20052;-32
2023/08/05 08:25:57;;;;;;;4.97;1.85;;;20.20;83.20;;;;;;4951338;29;20134;-31
2023/08/05 08:28:24;;;;;;;4.35;1.90;;;19.80;85.70;;;;;;4951406;29;20087;-30
2023/08/05 08:30:54;;;;;;;4.53;1.80;;;20.50;81.60;;;;;;4951063;29;20487;-30
2023/08/05 08:33:21;;;;;;;4.47;1.88;;;19.70;70.30;;;;;;4952027;28;20044;-32
2023/08/05 08:35:49;;;;;;;2.10;1.80;;;20.60;68.10;;;;;;4951169;28;20126;-30
2023/08/05 08:38:16;;;;;;;3.45;1.80;;;19.70;85.50;;;;;;4951354;28;20051;-30
2023/08/05 08:40:47;;;;;;;2.28;1.60;;;20.60;68.00;;;;;;4951013;29;20472;-36
2023/08/05 08:43:15;;;;;;;2.25;1.60;;;20.20;85.10;;;;;;4951011;28;20051;-31
2023/08/05 08:45:41;;;;;;;3.25;1.65;;;20.80;76.10;;;;;;4956090;28;20138;-31
2023/08/05 08:48:09;;;;;;;2.58;1.60;;;21.60;86.10;;;;;;4951227;29;20090;-32
2023/08/05 08:50:36;;;;;;;5.32;1.95;;;20.70;85.10;;;;;;4958739;28;20055;-30
2023/08/05 08:53:04;;;;;;;2.67;1.77;;;19.70;75.30;;;;;;4969609;28;20079;-30
2023/08/05 08:55:31;;;;;;;2.88;1.70;;;21.30;85.70;;;;;;4970231;28;20130;-30
2023/08/05 08:57:58;;;;;;;4.18;1.80;;;;;;;;;;4957847;28;20146;-35
2023/08/05 09:00:24;;;;;;;2.65;1.80;;;21.00;85.20;;;;;;4966220;28;20137;-30
2023/08/05 09:02:51;;;;;;;2.78;1.85;;;20.80;85.20;;;;;;4970005;28;20154;-30
2023/08/05 09:05:18;;;;;;;2.28;1.55;;;20.90;75.00;;;;;;4970195;28;20086;-32
2023/08/05 09:07:44;;;;;;;2.53;1.70;;;20.10;84.40;;;;;;4970172;28;20130;-30
2023/08/05 09:10:13;;;;;;;2.45;1.83;;;21.00;77.10;;;;;;4959098;28;20134;-30
2023/08/05 09:12:39;;;;;;;3.35;1.83;;;20.00;84.00;;;;;;4965338;28;20051;-31
2023/08/05 09:15:07;;;;;;;2.50;1.98;;;21.30;72.10;;;;;;4969138;28;20054;-33
2023/08/05 09:17:38;;;;;;;2.85;2.00;;;21.20;84.30;;;;;;4970199;28;20130;-30
2023/08/05 09:20:12;;;;;;;3.90;1.80;;;21.90;84.80;;;;;;4969831;28;20050;-30
2023/08/05 09:22:38;;;;;;;2.25;1.90;;;21.10;74.20;;;;;;4970004;28;20134;-31
2023/08/05 09:25:06;;;;;;;2.10;1.80;;;22.30;84.60;;;;;;4969555;28;20150;-31
2023/08/05 09:27:47;;;;;;;2.50;2.00;;;21.20;69.40;;;;;;4967583;28;20094;-30
2023/08/05 09:30:17;;;;;;;5.20;1.75;;;21.00;84.20;;;;;;4965005;28;20069;-30
2023/08/05 09:32:45;;;;;;;2.78;1.60;;;20.90;84.00;;;;;;4973113;28;20125;-30
2023/08/05 09:35:11;;;;;;;1.80;1.50;;;20.20;83.30;;;;;;4972987;28;20062;-30
2023/08/05 09:37:39;;;;;;;2.63;1.73;;;21.70;83.90;;;;;;4972505;28;20214;-30
2023/08/05 09:40:15;;;;;;;2.42;1.70;;;21.00;83.60;;;;;;4972889;28;20164;-31
2023/08/05 09:42:45;;;;;;;2.17;1.80;;;21.10;83.60;;;;;;4972586;28;20192;-30
2023/08/05 09:45:12;;;;;;;2.25;1.60;;;21.30;83.80;;;;;;4962942;28;20043;-30
2023/08/05 09:47:42;;;;;;;2.42;1.80;;;;;;;;;;4962844;28;20089;-34
2023/08/05 09:50:09;;;;;;;2.30;1.80;;;21.40;84.10;;;;;;4960970;28;20051;-30
2023/08/05 09:52:36;;;;;;;3.50;2.22;;;21.50;66.60;;;;;;4972542;28;20134;-31
2023/08/05 09:55:04;;;;;;;2.10;1.42;;;22.40;84.10;;;;;;4961067;28;20082;-30
2023/08/05 09:57:31;;;;;;;1.95;1.55;;;21.50;66.20;;;;;;4953431;28;20067;-35
2023/08/05 10:00:00;;;;;;;3.35;1.70;;;20.50;82.70;;;;;;4967483;28;20423;-30
2023/08/05 10:02:29;;;;;;;3.47;2.33;;;21.50;83.30;;;;;;4971967;28;20090;-30
2023/08/05 10:04:56;;;;;;;3.20;1.73;;;21.50;66.10;;;;;;4970153;28;20058;-34
2023/08/05 10:07:23;;;;;;;2.92;1.92;;;21.40;83.30;;;;;;4953059;28;20777;-31
2023/08/05 10:09:50;;;;;;;2.17;1.70;;;21.90;76.10;;;;;;4966792;28;20129;-31
2023/08/05 10:12:17;;;;;;;2.42;1.60;;;21.90;76.30;;;;;;4959716;28;20514;-30
2023/08/05 10:14:44;;;;;;;2.42;1.75;;;21.60;69.50;;;;;;4953303;28;20090;-32
2023/08/05 10:17:12;;;;;;;2.00;1.70;;;22.00;67.40;;;;;;4963455;28;20050;-31
2023/08/05 10:19:39;;;;;;;1.70;1.40;;;22.00;83.50;;;;;;4960288;28;20138;-31
2023/08/05 10:22:09;;;;;;;1.65;1.50;;;22.30;83.70;;;;;;4972063;28;20492;-32
2023/08/05 10:24:56;;;;;;;2.08;1.60;;;21.60;71.20;;;;;;4965235;28;20051;-31
2023/08/05 10:27:36;;;;;;;2.53;1.55;;;21.60;83.30;;;;;;4953130;28;20058;-31
2023/08/05 10:30:09;;;;;;;2.03;1.50;;;22.20;74.90;;;;;;4952625;28;20463;-31
2023/08/05 10:32:49;;;;;;;4.60;1.55;;;21.60;83.10;;;;;;4952997;28;20056;-32
2023/08/05 10:35:28;;;;;;;2.20;1.70;;;22.80;84.00;;;;;;4952855;28;20130;-31
2023/08/05 10:38:06;;;;;;;3.35;1.70;;;20.70;82.80;;;;;;4953113;28;20059;-31
2023/08/05 10:40:49;;;;;;;2.17;1.60;;;21.90;73.50;;;;;;4957629;28;20058;-32
2023/08/05 10:43:30;;;;;;;2.80;1.60;;;21.80;65.80;;;;;;4955420;28;20130;-34
2023/08/05 10:45:57;;;;;;;2.95;1.70;;;21.60;67.70;;;;;;4963062;28;20043;-33
2023/08/05 10:48:30;;;;;;;4.80;2.00;;;21.80;65.70;;;;;;4970342;28;20125;-31
2023/08/05 10:50:57;;;;;;;2.50;1.90;;;21.50;83.10;;;;;;4963621;28;20051;-30
2023/08/05 10:53:23;;;;;;;2.92;2.00;;;21.70;80.20;;;;;;4968252;28;20137;-31
2023/08/05 10:55:51;;;;;;;3.97;2.33;;;22.50;68.30;;;;;;4962773;28;20126;-31
2023/08/05 10:58:22;;;;;;;3.83;2.40;;;22.00;83.40;;;;;;4961770;28;20126;-32
2023/08/05 11:00:56;;;;;;;4.35;2.10;;;21.90;82.90;;;;;;4963897;28;20130;-31
2023/08/05 11:03:39;;;;;;;2.83;2.17;;;21.70;83.10;;;;;;4957646;28;20130;-30
2023/08/05 11:06:06;;;;;;;4.93;2.42;;;20.90;81.30;;;;;;4956190;28;20415;-32
2023/08/05 11:08:33;;;;;;;4.00;2.53;;;20.90;78.20;;;;;;4964193;28;20524;-32
2023/08/05 11:11:03;;;;;;;3.95;2.60;;;21.80;76.70;;;;;;4958193;28;20083;-31
2023/08/05 11:13:34;;;;;;;2.95;2.53;;;21.60;82.70;;;;;;4957833;28;20130;-31
2023/08/05 11:16:05;;;;;;;4.15;2.85;;;22.20;82.80;;;;;;4957519;28;20044;-31
2023/08/05 11:18:33;;;;;;;3.17;2.40;;;22.20;82.90;;;;;;4961602;28;20054;-40
2023/08/05 11:21:00;;;;;;;3.95;2.85;;;22.90;83.80;;;;;;4953920;28;20043;-40
2023/08/05 11:23:27;;;;;;;4.60;2.47;;;21.70;82.90;;;;;;4967173;28;20129;-35
2023/08/05 11:25:54;;;;;;;4.55;2.80;;;;;;;;;;4956932;28;20043;-35
2023/08/05 11:28:21;;;;;;;3.97;3.00;;;;;;;;;;4966166;28;20130;-33
2023/08/05 11:30:48;;;;;;;3.90;2.80;;;;;;;;;;4961371;28;20125;-36
2023/08/05 11:33:15;;;;;;;5.40;2.95;;;21.50;83.00;;;;;;4967631;28;20126;-38
2023/08/05 11:35:46;;;;;;;4.32;2.90;;;21.40;82.70;;;;;;4958038;28;20134;-35
2023/08/05 11:38:16;;;;;;;4.03;2.78;;;21.90;83.80;;;;;;4970674;28;20135;-35
2023/08/05 11:40:43;;;;;;;4.20;3.05;;;22.40;67.10;;;;;;4970342;28;20153;-36
2023/08/05 11:43:10;;;;;;;4.88;3.13;;;21.50;82.70;;;;;;4964325;28;20164;-38
2023/08/05 11:45:39;;;;;;;6.25;3.13;;;21.90;65.90;;;;;;4962777;28;20126;-35
2023/08/05 11:48:06;;;;;;;5.35;3.55;;;22.10;76.40;;;;;;4965736;28;20051;-39
2023/08/05 11:50:36;;;;;;;4.15;3.35;;;21.90;65.80;;;;;;4958264;28;20126;-35
2023/08/05 11:53:07;;;;;;;4.55;3.20;;;21.90;65.90;;;;;;4962169;28;20129;-33
2023/08/05 11:55:35;;;;;;;5.03;3.30;;;;;;;;;;4967007;28;20054;-37
2023/08/05 11:58:02;;;;;;;4.22;3.28;;;21.40;83.10;;;;;;4958850;28;20058;-37
2023/08/05 12:00:29;;;;;;;5.53;3.47;;;22.40;72.90;;;;;;4966831;28;20138;-36
2023/08/05 12:02:56;;;;;;;5.88;2.95;;;22.10;67.50;;;;;;4956356;28;20126;-39
2023/08/05 12:05:23;;;;;;;4.63;3.13;;;21.30;82.70;;;;;;4959004;28;20125;-37
2023/08/05 12:07:50;;;;;;;4.18;2.90;;;22.40;83.20;;;;;;4960126;28;20049;-39
2023/08/05 12:10:18;;;;;;;4.72;3.40;;;22.60;83.40;;;;;;4962939;28;20130;-39
2023/08/05 12:12:46;;;;;;;3.80;2.90;;;21.90;83.30;;;;;;4961521;28;20134;-36
2023/08/05 12:15:13;;;;;;;3.85;3.10;;;21.70;83.60;;;;;;4962808;28;20129;-37
2023/08/05 12:17:40;;;;;;;5.07;3.33;;;22.20;72.80;;;;;;4956376;28;20043;-37
2023/08/05 12:20:09;;;;;;;4.35;3.20;;;21.20;82.90;;;;;;4974083;28;20043;-35
2023/08/05 12:22:36;;;;;;;4.70;3.22;;;;;;;;;;4964016;28;20524;-37
2023/08/05 12:25:04;;;;;;;5.20;3.75;;;21.70;70.30;;;;;;4963333;28;20452;-34
2023/08/05 12:27:32;;;;;;;4.63;3.25;;;21.80;83.90;;;;;;4960782;28;20108;-36
2023/08/05 12:29:58;;;;;;;4.72;3.33;;;22.10;84.00;;;;;;4956240;28;20133;-36
2023/08/05 12:32:25;;;;;;;4.72;3.40;;;22.30;84.20;;;;;;4960669;28;20074;-35
2023/08/05 12:34:52;;;;;;;6.25;3.30;;;;;;;;;;4954038;28;20146;-34
2023/08/05 12:37:19;;;;;;;4.78;3.42;;;21.90;83.50;;;;;;4965027;28;20154;-36
2023/08/05 12:39:46;;;;;;;6.10;3.67;;;;;;;;;;4967429;28;20133;-33
2023/08/05 12:42:13;;;;;;;5.75;3.35;;;21.80;83.10;;;;;;4965481;28;20138;-36
2023/08/05 12:44:41;;;;;;;5.65;3.10;;;21.60;83.10;;;;;;4962131;28;20147;-36
2023/08/05 12:47:07;;;;;;;5.07;3.47;;;21.60;83.10;;;;;;4948390;28;20113;-39
2023/08/05 12:49:36;;;;;;;4.38;3.40;;;;;;;;;;4950919;28;20777;-34
2023/08/05 12:52:03;;;;;;;6.78;3.35;;;;;;;;;;4969469;28;20121;-32
2023/08/05 12:54:29;;;;;;;4.07;3.28;;;21.00;83.00;;;;;;4960934;28;20419;-34
2023/08/05 12:56:56;;;;;;;5.88;3.53;;;21.50;83.40;;;;;;4960223;28;20791;-35
2023/08/05 12:59:23;;;;;;;6.07;4.05;;;20.90;72.60;;;;;;4965347;28;20133;-36
2023/08/05 13:01:51;;;;;;;5.80;3.78;;;21.40;83.20;;;;;;4963810;28;20130;-38
2023/08/05 13:04:18;;;;;;;4.85;3.63;;;22.30;84.20;;;;;;4958041;28;20071;-38
2023/08/05 13:06:44;;;;;;;6.38;4.30;;;22.60;84.10;;;;;;4968235;28;20085;-38